Time;durP1;ratioP1;P1;durP2;ratioP2;P2;SDS_P1;SDS_P2;PMS_P1;PMS_P2;Temp;Humidity;BMP_temperature;BMP_pressure;BME280_temperature;BME280_humidity;BME280_pressure;Samples;Min_cycle;Max_cycle;Signal;HPM_P1;HPM_P2
2022/11/16 00:01:33;;;;;;;116.05;53.42;;;9.00;99.90;;;;;;5022121;28;20018;-77
2022/11/16 00:04:01;;;;;;;97.22;50.45;;;8.80;99.90;;;;;;5032027;28;20025;-77
2022/11/16 00:06:28;;;;;;;88.85;51.85;;;8.80;99.90;;;;;;5022964;28;20114;-77
2022/11/16 00:11:44;;;;;;;88.80;54.47;;;8.90;99.90;;;;;;5024503;28;20404;-74
2022/11/16 00:14:10;;;;;;;87.57;54.13;;;9.00;99.90;;;;;;5015304;28;20054;-75
2022/11/16 00:16:36;;;;;;;110.72;56.90;;;9.00;99.90;;;;;;5029766;28;20064;-74
2022/11/16 00:19:04;;;;;;;117.50;57.33;;;9.10;99.90;;;;;;5022178;28;20025;-74
2022/11/16 00:21:30;;;;;;;82.60;49.10;;;9.10;99.90;;;;;;5031677;28;20022;-74
2022/11/16 00:23:57;;;;;;;77.57;51.08;;;9.00;99.90;;;;;;5031439;28;20486;-74
2022/11/16 00:26:23;;;;;;;75.50;49.13;;;9.10;99.90;;;;;;5031527;28;20025;-75
2022/11/16 00:28:52;;;;;;;71.80;48.45;;;9.10;99.90;;;;;;5004883;28;20038;-77
2022/11/16 00:31:18;;;;;;;77.65;48.92;;;9.10;99.90;;;;;;5008322;28;20116;-78
2022/11/16 00:33:46;;;;;;;84.03;51.53;;;9.10;99.90;;;;;;5031194;28;20021;-78
2022/11/16 00:36:12;;;;;;;83.30;49.25;;;9.10;99.90;;;;;;5018278;28;20504;-77
2022/11/16 00:38:39;;;;;;;90.82;49.47;;;9.00;99.90;;;;;;4995208;28;20080;-77
2022/11/16 00:41:05;;;;;;;90.20;50.67;;;8.90;99.90;;;;;;5024715;28;20384;-76
2022/11/16 00:43:32;;;;;;;74.25;50.90;;;8.90;99.90;;;;;;5030969;28;20045;-78
2022/11/16 00:45:58;;;;;;;76.55;51.95;;;8.90;99.90;;;;;;5028216;28;20037;-78
2022/11/16 00:48:24;;;;;;;82.00;48.40;;;8.90;99.90;;;;;;5002150;28;20022;-78
2022/11/16 00:50:50;;;;;;;99.80;51.30;;;8.90;99.90;;;;;;4999629;28;20049;-75
2022/11/16 00:53:18;;;;;;;76.78;50.63;;;8.90;99.90;;;;;;5005485;28;20140;-77
2022/11/16 00:55:46;;;;;;;70.65;47.65;;;8.80;99.90;;;;;;5012827;28;20499;-76
2022/11/16 00:58:14;;;;;;;75.88;50.58;;;8.90;99.90;;;;;;5004093;28;20018;-77
2022/11/16 01:00:42;;;;;;;103.65;53.47;;;8.90;99.90;;;;;;4993239;28;20117;-74
2022/11/16 01:03:08;;;;;;;136.27;58.45;;;8.80;99.90;;;;;;5002697;28;20034;-74
2022/11/16 01:05:34;;;;;;;129.65;58.83;;;8.50;99.90;;;;;;5025388;28;20025;-74
2022/11/16 01:08:00;;;;;;;91.32;54.22;;;8.30;99.90;;;;;;5018708;28;20025;-77
2022/11/16 01:10:27;;;;;;;100.15;54.67;;;8.30;99.90;;;;;;5030893;28;20029;-75
2022/11/16 01:12:54;;;;;;;79.90;51.60;;;8.30;99.90;;;;;;5017018;28;20503;-74
2022/11/16 01:15:23;;;;;;;117.00;52.10;;;8.30;99.90;;;;;;5016886;28;20369;-75
2022/11/16 01:17:51;;;;;;;86.38;52.10;;;8.30;99.90;;;;;;5015902;28;20498;-78
2022/11/16 01:20:19;;;;;;;96.45;53.80;;;8.30;99.90;;;;;;5026054;28;20519;-75
2022/11/16 01:22:46;;;;;;;96.50;50.03;;;8.30;99.90;;;;;;5026421;28;20030;-77
2022/11/16 01:25:12;;;;;;;165.88;59.00;;;8.20;99.90;;;;;;5034963;28;20021;-77
2022/11/16 01:27:39;;;;;;;91.95;49.03;;;8.10;99.90;;;;;;5017246;28;20076;-75
2022/11/16 01:30:11;;;;;;;179.23;59.40;;;8.10;99.90;;;;;;5016494;28;20025;-78
2022/11/16 01:32:42;;;;;;;116.87;55.50;;;7.90;99.90;;;;;;5018683;28;20037;-79
2022/11/16 01:35:13;;;;;;;100.18;51.72;;;7.90;99.90;;;;;;5021740;28;20811;-77
2022/11/16 01:37:39;;;;;;;86.43;52.53;;;8.00;99.90;;;;;;5020654;28;20034;-77
2022/11/16 01:40:06;;;;;;;135.02;57.70;;;8.00;99.90;;;;;;5017037;28;20097;-75
2022/11/16 01:42:33;;;;;;;86.22;54.33;;;8.00;99.90;;;;;;5016940;28;20411;-77
2022/11/16 01:45:14;;;;;;;85.30;54.58;;;8.10;99.90;;;;;;5007400;28;20033;-74
2022/11/16 01:47:41;;;;;;;83.07;51.45;;;8.10;99.90;;;;;;4983126;28;20025;-76
2022/11/16 01:50:12;;;;;;;94.78;54.00;;;8.20;99.90;;;;;;5002703;28;20049;-78
2022/11/16 01:52:49;;;;;;;145.35;49.63;;;8.20;99.90;;;;;;5014562;28;20037;-78
2022/11/16 01:55:16;;;;;;;63.90;46.08;;;8.10;99.90;;;;;;5018121;28;20032;-74
2022/11/16 01:58:01;;;;;;;108.38;48.95;;;8.00;99.90;;;;;;5029957;28;20141;-77
2022/11/16 02:00:29;;;;;;;120.85;58.10;;;7.90;99.90;;;;;;5016104;28;20025;-74
2022/11/16 02:03:09;;;;;;;253.43;87.75;;;7.80;99.90;;;;;;5016268;28;20022;-76
2022/11/16 02:06:25;;;;;;;92.82;54.15;;;7.80;99.90;;;;;;5016316;28;20107;-77
2022/11/16 02:12:22;;;;;;;299.02;111.05;;;7.70;99.90;;;;;;4929801;29;20490;-77
2022/11/16 02:14:58;;;;;;;141.63;90.75;;;7.50;99.90;;;;;;4949764;29;20485;-77
2022/11/16 02:17:53;;;;;;;122.63;94.78;;;7.60;99.90;;;;;;4937481;28;20075;-77
2022/11/16 02:20:42;;;;;;;122.90;80.35;;;7.70;99.90;;;;;;4952712;28;20410;-74
2022/11/16 02:23:34;;;;;;;92.78;66.75;;;7.70;99.90;;;;;;4937928;29;20031;-74
2022/11/16 02:26:21;;;;;;;89.00;55.92;;;7.80;99.90;;;;;;4925323;29;20046;-78
2022/11/16 02:29:17;;;;;;;125.38;71.45;;;7.90;99.90;;;;;;4932590;29;20031;-74
2022/11/16 02:32:00;;;;;;;88.65;69.63;;;7.80;99.90;;;;;;4916786;29;20897;-74
2022/11/16 02:34:30;;;;;;;132.40;75.30;;;7.80;99.90;;;;;;4937447;28;20118;-76
2022/11/16 02:37:01;;;;;;;178.35;78.28;;;7.80;99.90;;;;;;4929388;29;20036;-75
2022/11/16 02:39:30;;;;;;;157.70;83.18;;;7.80;99.90;;;;;;4929363;28;20046;-75
2022/11/16 02:41:58;;;;;;;129.27;85.20;;;7.70;99.90;;;;;;4930775;29;20030;-77
2022/11/16 02:44:33;;;;;;;367.70;141.35;;;7.70;99.90;;;;;;4948110;29;20028;-75
2022/11/16 02:47:03;;;;;;;141.23;82.77;;;7.50;99.90;;;;;;5014755;28;20034;-74
2022/11/16 02:49:38;;;;;;;106.65;76.53;;;7.60;99.90;;;;;;4995915;28;20072;-77
2022/11/16 02:52:04;;;;;;;102.47;73.03;;;7.60;99.90;;;;;;5011354;28;20041;-77
2022/11/16 02:54:30;;;;;;;107.60;81.07;;;7.60;99.90;;;;;;4993125;28;20049;-78
2022/11/16 02:57:02;;;;;;;120.85;91.20;;;7.70;99.90;;;;;;4994314;28;20413;-76
2022/11/16 02:59:32;;;;;;;;;;;7.70;99.90;;;;;;4991568;28;20026;-76
2022/11/16 03:02:09;;;;;;;140.07;89.95;;;7.70;99.90;;;;;;4991806;28;19909;-78
2022/11/16 03:04:45;;;;;;;130.18;92.57;;;7.80;99.90;;;;;;4990805;28;20080;-77
2022/11/16 03:07:15;;;;;;;101.45;69.30;;;7.80;99.90;;;;;;5001673;28;20042;-78
2022/11/16 03:09:43;;;;;;;106.20;62.53;;;7.80;99.90;;;;;;4991777;28;20030;-75
2022/11/16 03:12:13;;;;;;;90.15;65.05;;;7.60;99.90;;;;;;4993914;28;20126;-78
2022/11/16 03:14:53;;;;;;;100.55;59.40;;;7.50;99.90;;;;;;4993880;28;20040;-75
2022/11/16 03:17:27;;;;;;;146.02;65.95;;;7.60;99.90;;;;;;4993997;28;20033;-76
2022/11/16 03:20:03;;;;;;;87.15;55.55;;;7.50;99.90;;;;;;5011313;28;20034;-78
2022/11/16 03:22:37;;;;;;;73.95;51.95;;;7.50;99.90;;;;;;4993795;28;20121;-78
2022/11/16 03:25:05;;;;;;;88.50;53.80;;;7.70;99.90;;;;;;4993546;28;20492;-78
2022/11/16 03:27:42;;;;;;;94.88;52.92;;;7.60;99.90;;;;;;4993834;28;20022;-74
2022/11/16 03:30:13;;;;;;;74.97;48.17;;;7.60;99.90;;;;;;4993165;28;20030;-74
2022/11/16 03:33:20;;;;;;;99.93;54.00;;;7.50;99.90;;;;;;4993794;28;20116;-78
2022/11/16 03:36:16;;;;;;;73.47;48.38;;;7.60;99.90;;;;;;5011224;28;20038;-74
2022/11/16 03:38:45;;;;;;;60.38;45.80;;;7.80;99.90;;;;;;5010914;28;20034;-78
2022/11/16 03:41:13;;;;;;;72.53;47.60;;;7.80;99.90;;;;;;4993889;28;20022;-76
2022/11/16 03:43:41;;;;;;;66.68;48.17;;;7.90;99.90;;;;;;4993457;28;20029;-78
2022/11/16 03:46:07;;;;;;;60.70;45.28;;;7.90;99.90;;;;;;4992612;28;20042;-76
2022/11/16 03:48:39;;;;;;;76.30;48.92;;;8.00;99.90;;;;;;5010867;28;20070;-75
2022/11/16 03:51:15;;;;;;;66.07;46.13;;;8.00;99.90;;;;;;4990354;28;20045;-76
2022/11/16 03:53:41;;;;;;;67.70;48.88;;;8.00;99.90;;;;;;5006497;28;20053;-75
2022/11/16 03:56:09;;;;;;;63.47;44.65;;;8.10;99.90;;;;;;4988940;28;20019;-77
2022/11/16 03:58:36;;;;;;;68.50;44.85;;;8.00;99.90;;;;;;4987008;28;20029;-77
2022/11/16 04:01:03;;;;;;;61.17;44.08;;;8.10;99.90;;;;;;4992816;28;20030;-77
2022/11/16 04:03:29;;;;;;;66.20;46.03;;;8.10;99.90;;;;;;4990132;28;20686;-77
2022/11/16 04:25:29;;;;;;;64.75;42.80;;;7.90;99.90;;;;;;4988688;28;20056;-75
2022/11/16 04:28:15;;;;;;;64.20;45.65;;;7.90;99.90;;;;;;5003728;28;20022;-78
2022/11/16 04:39:32;;;;;;;72.45;48.53;;;8.10;99.90;;;;;;4913838;29;20028;-78
2022/11/16 04:42:13;;;;;;;67.40;45.88;;;8.00;99.90;;;;;;4913995;29;20498;-78
2022/11/16 04:47:31;;;;;;;65.13;45.53;;;7.90;99.90;;;;;;4911045;28;20483;-76
2022/11/16 04:49:57;;;;;;;65.10;44.20;;;7.90;99.90;;;;;;4913476;29;20672;-77
2022/11/16 04:52:23;;;;;;;55.78;42.05;;;7.90;99.90;;;;;;4913937;29;20430;-76
2022/11/16 04:54:51;;;;;;;69.68;49.67;;;7.70;99.90;;;;;;4933714;29;20043;-78
2022/11/16 04:57:17;;;;;;;61.78;45.90;;;7.70;99.90;;;;;;4949199;28;20046;-76
2022/11/16 04:59:44;;;;;;;58.65;44.33;;;7.60;99.90;;;;;;4949060;28;20075;-79
2022/11/16 05:02:11;;;;;;;66.00;49.05;;;7.60;99.90;;;;;;4932920;29;20043;-75
2022/11/16 05:04:47;;;;;;;56.80;42.72;;;7.50;99.90;;;;;;4930067;28;20273;-76
2022/11/16 05:07:13;;;;;;;63.65;45.70;;;7.50;99.90;;;;;;4947670;28;20087;-75
2022/11/16 05:09:44;;;;;;;60.65;44.75;;;7.50;99.90;;;;;;4963657;28;20076;-77
2022/11/16 05:12:16;;;;;;;61.75;45.13;;;7.60;99.90;;;;;;4971661;28;20493;-75
2022/11/16 05:14:43;;;;;;;66.38;48.05;;;7.60;99.90;;;;;;4970446;28;20053;-74
2022/11/16 05:17:11;;;;;;;64.22;43.60;;;7.70;99.90;;;;;;4967719;28;20030;-77
2022/11/16 05:22:23;;;;;;;62.00;45.85;;;7.80;99.90;;;;;;4972230;28;20108;-79
2022/11/16 05:24:51;;;;;;;62.53;45.47;;;7.80;99.90;;;;;;4971433;28;20014;-78
2022/11/16 05:27:18;;;;;;;59.47;43.53;;;7.80;99.90;;;;;;4969793;28;20039;-77
2022/11/16 05:29:44;;;;;;;66.95;47.72;;;7.80;99.90;;;;;;4968546;28;20118;-77
2022/11/16 05:32:15;;;;;;;58.90;44.53;;;7.90;99.90;;;;;;4971006;28;20042;-78
2022/11/16 05:34:41;;;;;;;62.38;45.03;;;7.90;99.90;;;;;;4986252;28;20015;-77
2022/11/16 05:37:11;;;;;;;59.55;44.80;;;8.00;99.90;;;;;;4972579;28;20030;-74
2022/11/16 05:39:38;;;;;;;54.85;42.50;;;8.00;99.90;;;;;;4986639;23;20021;-77
2022/11/16 05:44:57;;;;;;;60.97;45.60;;;8.00;99.90;;;;;;5027776;28;20037;-75
2022/11/16 05:47:23;;;;;;;59.45;43.38;;;8.00;99.90;;;;;;5035611;28;20037;-75
2022/11/16 05:49:49;;;;;;;58.60;45.67;;;8.10;99.90;;;;;;5029344;28;20034;-74
2022/11/16 05:52:14;;;;;;;61.90;46.75;;;8.10;99.90;;;;;;5030148;28;20025;-75
2022/11/16 05:54:43;;;;;;;63.08;48.00;;;8.00;99.90;;;;;;5015580;28;20030;-77
2022/11/16 05:57:09;;;;;;;62.53;45.90;;;8.00;99.90;;;;;;5029305;28;20018;-75
2022/11/16 05:59:35;;;;;;;59.20;44.17;;;8.00;99.90;;;;;;5011622;28;20545;-77
2022/11/16 06:02:03;;;;;;;63.13;47.08;;;8.00;99.90;;;;;;5011701;28;20033;-78
2022/11/16 06:04:31;;;;;;;71.50;52.22;;;8.00;99.90;;;;;;5026986;28;20125;-74
2022/11/16 06:06:58;;;;;;;69.57;51.38;;;8.00;99.90;;;;;;5011072;28;20520;-77
2022/11/16 06:09:28;;;;;;;74.43;55.38;;;8.10;99.90;;;;;;5012233;28;20461;-76
2022/11/16 06:12:04;;;;;;;77.13;55.78;;;8.00;99.90;;;;;;5016231;28;20490;-74
2022/11/16 06:14:31;;;;;;;65.65;47.42;;;8.10;99.90;;;;;;5015025;28;20649;-76
2022/11/16 06:16:57;;;;;;;69.07;52.25;;;8.20;99.90;;;;;;5027289;28;20022;-74
2022/11/16 06:19:23;;;;;;;78.10;56.60;;;8.20;99.90;;;;;;5016597;28;20488;-73
2022/11/16 06:21:49;;;;;;;75.75;53.72;;;8.30;99.90;;;;;;5032672;28;20071;-74
2022/11/16 06:24:18;;;;;;;66.50;50.75;;;8.30;99.90;;;;;;5027295;28;20120;-74
2022/11/16 06:26:45;;;;;;;81.93;54.60;;;8.30;99.90;;;;;;5028178;28;20051;-74
2022/11/16 06:29:13;;;;;;;70.03;50.08;;;8.30;99.90;;;;;;5017168;28;20498;-74
2022/11/16 06:31:38;;;;;;;69.18;52.58;;;8.30;99.90;;;;;;5031840;28;20389;-74
2022/11/16 06:34:05;;;;;;;74.93;51.50;;;8.40;99.90;;;;;;5022359;28;20097;-73
2022/11/16 06:36:31;;;;;;;77.75;54.65;;;8.30;99.90;;;;;;5027445;28;20021;-74
2022/11/16 06:38:59;;;;;;;63.88;48.45;;;8.40;99.90;;;;;;5031475;28;20036;-74
2022/11/16 06:41:27;;;;;;;93.95;72.07;;;8.40;99.90;;;;;;5014431;28;20037;-75
2022/11/16 06:43:53;;;;;;;111.18;79.75;;;8.50;99.90;;;;;;5031554;28;20020;-73
2022/11/16 06:46:24;;;;;;;118.95;88.20;;;8.50;99.90;;;;;;5018764;28;20075;-77
2022/11/16 06:48:50;;;;;;;113.30;81.78;;;8.50;99.90;;;;;;5026436;28;20471;-75
2022/11/16 06:51:17;;;;;;;102.07;65.38;;;8.50;99.90;;;;;;5014352;28;20037;-77
2022/11/16 06:53:43;;;;;;;101.90;68.53;;;8.40;99.90;;;;;;5016804;28;20471;-77
2022/11/16 06:56:12;;;;;;;86.32;59.95;;;8.40;99.90;;;;;;5026322;28;20108;-74
2022/11/16 06:58:43;;;;;;;75.32;55.47;;;8.30;99.90;;;;;;5014237;28;20025;-75
2022/11/16 07:01:11;;;;;;;87.57;58.22;;;8.30;99.90;;;;;;5014362;28;20400;-77
2022/11/16 07:03:39;;;;;;;73.68;54.45;;;8.30;99.90;;;;;;5014814;28;20026;-73
2022/11/16 07:06:09;;;;;;;69.57;51.70;;;8.40;99.90;;;;;;5015648;28;20032;-73
2022/11/16 07:08:37;;;;;;;61.60;48.38;;;8.40;99.90;;;;;;5027190;28;20060;-72
2022/11/16 07:11:04;;;;;;;78.28;55.67;;;8.20;99.90;;;;;;5027280;28;20032;-77
2022/11/16 07:13:35;;;;;;;66.93;48.45;;;8.20;99.90;;;;;;5015020;28;20037;-73
2022/11/16 07:16:07;;;;;;;73.00;54.55;;;8.20;99.90;;;;;;5031363;28;20152;-73
2022/11/16 07:18:36;;;;;;;79.50;56.25;;;8.30;99.90;;;;;;5015146;28;20147;-73
2022/11/16 07:21:11;;;;;;;73.38;53.03;;;8.40;99.90;;;;;;5025766;28;20096;-76
2022/11/16 07:23:38;;;;;;;61.45;49.22;;;8.50;99.90;;;;;;5026830;28;20030;-74
2022/11/16 07:26:07;;;;;;;69.55;53.53;;;8.60;99.90;;;;;;5014382;28;20654;-73
2022/11/16 07:28:48;;;;;;;83.18;57.45;;;8.70;99.90;;;;;;5021063;28;20455;-73
2022/11/16 07:31:17;;;;;;;74.68;56.75;;;8.70;99.90;;;;;;5027179;28;20469;-74
2022/11/16 07:33:44;;;;;;;78.22;61.70;;;8.60;99.90;;;;;;5014575;28;20499;-74
2022/11/16 07:36:15;;;;;;;80.18;62.83;;;8.60;99.90;;;;;;5031989;28;20041;-77
2022/11/16 07:38:42;;;;;;;82.53;59.65;;;8.70;99.90;;;;;;5020577;28;20037;-74
2022/11/16 07:41:17;;;;;;;80.20;62.17;;;8.70;99.90;;;;;;5030224;28;20136;-73
2022/11/16 07:44:00;;;;;;;87.85;64.45;;;8.90;99.90;;;;;;5014229;28;20025;-73
2022/11/16 07:46:30;;;;;;;99.90;77.22;;;9.00;99.90;;;;;;5014837;28;20091;-74
2022/11/16 07:48:57;;;;;;;88.82;68.40;;;9.10;99.90;;;;;;5031885;28;20025;-73
2022/11/16 07:51:47;;;;;;;92.80;71.05;;;9.10;99.90;;;;;;5027747;28;20111;-73
2022/11/16 07:54:54;;;;;;;117.93;86.20;;;9.10;99.90;;;;;;4990679;28;20489;-73
2022/11/16 07:57:23;;;;;;;92.40;72.55;;;9.30;99.90;;;;;;4973616;28;20026;-76
2022/11/16 07:59:51;;;;;;;89.45;67.80;;;9.30;99.90;;;;;;4990452;28;20042;-73
2022/11/16 08:02:17;;;;;;;76.70;57.40;;;9.50;99.90;;;;;;4973372;28;20034;-76
2022/11/16 08:04:44;;;;;;;71.97;54.45;;;9.40;99.90;;;;;;4972687;28;20030;-76
2022/11/16 08:07:10;;;;;;;78.18;56.85;;;9.40;99.90;;;;;;4988596;28;20329;-73
2022/11/16 08:09:42;;;;;;;84.72;68.25;;;9.60;99.90;;;;;;4969426;28;20069;-74
2022/11/16 08:12:12;;;;;;;69.15;53.30;;;9.50;99.90;;;;;;4973080;28;20054;-73
2022/11/16 08:14:38;;;;;;;72.63;54.75;;;9.70;99.90;;;;;;4972853;28;20137;-74
2022/11/16 08:17:04;;;;;;;71.28;54.25;;;9.90;99.90;;;;;;4989744;28;20038;-73
2022/11/16 08:19:30;;;;;;;62.50;51.13;;;10.00;99.90;;;;;;4972703;28;20034;-73
2022/11/16 08:21:57;;;;;;;75.32;55.13;;;10.00;99.90;;;;;;4989112;28;20585;-75
2022/11/16 08:24:26;;;;;;;99.60;70.75;;;10.10;99.90;;;;;;4973417;28;20034;-72
2022/11/16 08:26:53;;;;;;;64.10;48.97;;;10.10;99.90;;;;;;5023728;28;20022;-72
2022/11/16 08:29:19;;;;;;;58.38;42.30;;;10.10;99.90;;;;;;5024168;28;20025;-72
2022/11/16 08:31:49;;;;;;;52.35;40.35;;;10.10;99.90;;;;;;5032267;28;20409;-73
2022/11/16 08:34:18;;;;;;;59.83;43.33;;;10.30;99.90;;;;;;5032671;28;20499;-73
2022/11/16 08:36:48;;;;;;;61.88;45.25;;;10.50;99.90;;;;;;5017147;28;20749;-74
2022/11/16 08:39:14;;;;;;;59.78;44.58;;;10.70;99.90;;;;;;5032255;28;20025;-74
2022/11/16 08:41:41;;;;;;;63.30;43.67;;;10.70;99.90;;;;;;5013277;28;20567;-73
2022/11/16 08:44:08;;;;;;;60.65;46.42;;;10.80;99.90;;;;;;5025788;28;20126;-73
2022/11/16 08:46:38;;;;;;;64.22;46.88;;;11.00;99.90;;;;;;5013682;28;20490;-72
2022/11/16 08:49:20;;;;;;;71.75;53.08;;;11.10;99.90;;;;;;5025451;28;20040;-75
2022/11/16 08:51:46;;;;;;;62.60;50.17;;;11.20;99.90;;;;;;5025329;28;20033;-73
2022/11/16 08:54:12;;;;;;;62.42;51.17;;;11.30;99.90;;;;;;5012125;28;20042;-74
2022/11/16 08:56:40;;;;;;;65.65;50.33;;;11.40;99.90;;;;;;5019896;28;20548;-75
2022/11/16 08:59:07;;;;;;;70.80;54.58;;;11.50;99.90;;;;;;5012995;28;20526;-74
2022/11/16 09:01:33;;;;;;;75.38;56.88;;;11.50;99.90;;;;;;5012607;28;20025;-74
2022/11/16 09:03:59;;;;;;;70.57;55.08;;;11.60;99.90;;;;;;5033120;28;20487;-73
2022/11/16 09:06:26;;;;;;;72.43;51.67;;;11.70;99.90;;;;;;5032206;28;20021;-73
2022/11/16 09:08:53;;;;;;;73.40;54.72;;;11.70;99.90;;;;;;5037578;28;20021;-73
2022/11/16 09:11:22;;;;;;;68.57;52.05;;;11.80;99.90;;;;;;5036000;28;20049;-72
2022/11/16 09:13:49;;;;;;;71.57;53.13;;;11.80;99.90;;;;;;5041181;28;20114;-73
2022/11/16 09:16:16;;;;;;;81.63;57.25;;;11.90;99.90;;;;;;5036268;28;20048;-72
2022/11/16 09:18:47;;;;;;;72.60;55.08;;;11.90;99.90;;;;;;5043083;28;20553;-72
2022/11/16 09:21:30;;;;;;;83.63;60.08;;;12.00;99.90;;;;;;5048528;28;20067;-72
2022/11/16 09:23:57;;;;;;;84.68;64.05;;;12.00;99.90;;;;;;5040316;28;20033;-72
2022/11/16 09:26:23;;;;;;;82.22;62.75;;;12.00;99.90;;;;;;5044110;28;20016;-75
2022/11/16 09:28:57;;;;;;;77.22;58.78;;;12.10;99.90;;;;;;5041117;28;20483;-73
2022/11/16 09:31:27;;;;;;;78.53;57.72;;;12.20;99.90;;;;;;5034194;28;20079;-73
2022/11/16 09:33:57;;;;;;;76.15;55.92;;;12.20;99.90;;;;;;5035382;28;20042;-73
2022/11/16 09:36:27;;;;;;;72.60;54.60;;;12.20;99.90;;;;;;5051258;28;20105;-72
2022/11/16 09:38:55;;;;;;;71.07;53.30;;;12.20;99.90;;;;;;5046745;28;20062;-72
2022/11/16 09:41:33;;;;;;;70.55;52.35;;;12.40;99.90;;;;;;5038277;28;20037;-72
2022/11/16 09:44:33;;;;;;;78.70;52.90;;;12.50;99.90;;;;;;5033983;28;20017;-72
2022/11/16 09:47:01;;;;;;;79.72;53.38;;;12.60;99.90;;;;;;5038199;28;20029;-72
2022/11/16 09:49:40;;;;;;;67.05;48.78;;;12.70;99.90;;;;;;5048087;28;20017;-72
2022/11/16 09:52:15;;;;;;;67.30;50.13;;;12.70;99.90;;;;;;5034569;28;20112;-76
2022/11/16 09:54:43;;;;;;;70.68;46.92;;;12.80;99.90;;;;;;5035152;28;20034;-73
2022/11/16 09:57:15;;;;;;;75.88;52.25;;;12.80;99.90;;;;;;5042533;28;20607;-72
2022/11/16 09:59:46;;;;;;;65.90;49.33;;;12.80;99.90;;;;;;5033692;28;20130;-72
2022/11/16 10:03:09;;;;;;;65.78;49.45;;;12.80;99.90;;;;;;5040046;28;20476;-73
2022/11/16 10:05:43;;;;;;;67.32;48.33;;;12.90;99.90;;;;;;4951137;28;20030;-72
2022/11/16 10:08:16;;;;;;;67.63;43.70;;;13.00;99.90;;;;;;4950929;28;20027;-72
2022/11/16 10:10:49;;;;;;;65.40;48.10;;;13.20;99.90;;;;;;4951776;28;20194;-72
2022/11/16 10:13:42;;;;;;;58.95;43.00;;;13.20;99.90;;;;;;4953834;29;20078;-73
2022/11/16 10:16:44;;;;;;;52.10;43.08;;;13.20;99.90;;;;;;4963438;28;20039;-73
2022/11/16 10:19:12;;;;;;;53.78;41.58;;;13.50;99.90;;;;;;4963961;28;20481;-74
2022/11/16 10:21:47;;;;;;;61.72;43.80;;;13.40;99.90;;;;;;4959056;28;20035;-72
2022/11/16 10:24:27;;;;;;;62.20;43.83;;;13.30;99.90;;;;;;4958815;28;20075;-74
2022/11/16 10:27:04;;;;;;;55.60;41.60;;;13.50;99.90;;;;;;4971351;28;20027;-74
2022/11/16 10:29:47;;;;;;;49.97;38.85;;;13.70;99.90;;;;;;4973731;28;20043;-74
2022/11/16 10:32:27;;;;;;;57.17;42.60;;;13.80;99.90;;;;;;4973579;28;20397;-74
2022/11/16 10:34:59;;;;;;;58.03;43.90;;;13.90;99.90;;;;;;4964688;28;20045;-73
2022/11/16 10:37:33;;;;;;;61.75;43.25;;;14.10;99.90;;;;;;5044822;28;20021;-78
2022/11/16 10:40:12;;;;;;;56.05;39.25;;;14.20;99.90;;;;;;5047174;28;20513;-72
2022/11/16 10:42:38;;;;;;;49.50;36.17;;;14.40;99.90;;;;;;5016960;28;20048;-77
2022/11/16 10:45:10;;;;;;;50.42;36.88;;;14.50;99.90;;;;;;5036151;28;20029;-75
2022/11/16 10:47:37;;;;;;;59.28;40.97;;;14.60;99.90;;;;;;5045943;28;20104;-72
2022/11/16 10:50:33;;;;;;;69.03;44.47;;;14.70;99.90;;;;;;5035504;28;20017;-73
2022/11/16 10:52:59;;;;;;;64.30;44.78;;;14.80;99.90;;;;;;5035947;28;20063;-72
2022/11/16 10:55:27;;;;;;;71.65;48.03;;;14.90;99.90;;;;;;5038033;28;20025;-73
2022/11/16 10:57:56;;;;;;;59.90;42.30;;;15.00;99.90;;;;;;5034364;28;20116;-73
2022/11/16 11:00:51;;;;;;;68.32;46.42;;;15.10;99.90;;;;;;5034276;28;20132;-73
2022/11/16 11:03:37;;;;;;;69.63;44.67;;;15.10;99.90;;;;;;4934880;29;20039;-72
2022/11/16 11:06:03;;;;;;;76.80;51.10;;;15.30;99.90;;;;;;4934641;29;20044;-73
2022/11/16 11:08:30;;;;;;;71.65;49.90;;;15.30;99.90;;;;;;4934654;29;20047;-72
2022/11/16 11:14:10;;;;;;;57.90;42.67;;;15.50;99.90;;;;;;4934058;29;20098;-72
2022/11/16 11:16:36;;;;;;;54.40;39.15;;;15.60;99.90;;;;;;4934506;29;20135;-75
2022/11/16 11:19:26;;;;;;;46.95;33.85;;;15.70;99.90;;;;;;4934478;29;20053;-74
2022/11/16 11:21:59;;;;;;;43.88;31.58;;;15.80;99.90;;;;;;4934701;29;20036;-74
2022/11/16 11:24:26;;;;;;;50.30;35.92;;;15.80;99.90;;;;;;4937023;29;20446;-73
2022/11/16 11:26:58;;;;;;;42.60;27.27;;;16.00;99.90;;;;;;4953567;28;20039;-74
2022/11/16 11:29:33;;;;;;;26.42;17.67;;;16.00;99.90;;;;;;4951876;29;20463;-73
2022/11/16 11:32:19;;;;;;;24.05;14.10;;;16.00;99.90;;;;;;4934066;29;20578;-73
2022/11/16 11:34:49;;;;;;;25.95;14.88;;;16.00;99.90;;;;;;4934328;29;20035;-73
2022/11/16 11:37:20;;;;;;;30.58;17.27;;;16.10;99.90;;;;;;4940839;29;20054;-73
2022/11/16 11:39:46;;;;;;;25.17;15.85;;;16.20;99.90;;;;;;4993784;28;20044;-76
2022/11/16 11:42:12;;;;;;;27.08;17.38;;;16.20;99.90;;;;;;5033313;28;20419;-72
2022/11/16 11:44:37;;;;;;;26.23;15.00;;;16.20;99.90;;;;;;5033094;28;20067;-73
2022/11/16 11:47:27;;;;;;;27.45;15.25;;;16.30;99.90;;;;;;5033481;28;20033;-73
2022/11/16 11:50:13;;;;;;;26.08;14.40;;;16.30;99.90;;;;;;5033404;28;20061;-72
2022/11/16 11:52:52;;;;;;;23.15;15.32;;;16.30;99.90;;;;;;5033330;28;20056;-73
2022/11/16 11:55:18;;;;;;;25.67;14.75;;;16.30;99.90;;;;;;5033527;28;20128;-72
2022/11/16 11:57:48;;;;;;;31.60;17.83;;;16.30;99.90;;;;;;5033003;28;20104;-73
2022/11/16 12:00:16;;;;;;;37.78;18.02;;;16.40;99.90;;;;;;5032915;28;20121;-72
2022/11/16 12:02:55;;;;;;;31.02;18.30;;;16.50;99.90;;;;;;5033113;28;20018;-73
2022/11/16 12:05:26;;;;;;;25.63;16.75;;;16.50;99.90;;;;;;5032481;28;20049;-73
2022/11/16 12:08:13;;;;;;;25.02;13.82;;;16.60;99.90;;;;;;5021028;28;20028;-72
2022/11/16 12:10:51;;;;;;;21.10;11.95;;;16.60;99.90;;;;;;5015422;28;20033;-72
2022/11/16 12:13:31;;;;;;;30.85;13.63;;;16.60;99.90;;;;;;5030904;28;20049;-72
2022/11/16 12:16:00;;;;;;;27.85;15.68;;;16.60;99.90;;;;;;5032759;28;20117;-73
2022/11/16 12:18:26;;;;;;;20.67;13.38;;;16.60;99.90;;;;;;5032220;28;20021;-72
2022/11/16 12:21:12;;;;;;;22.92;13.07;;;16.60;99.90;;;;;;5031874;28;20112;-73
2022/11/16 12:23:41;;;;;;;22.45;13.95;;;16.60;99.90;;;;;;5014766;28;20456;-73
2022/11/16 12:26:34;;;;;;;38.83;23.38;;;16.70;99.90;;;;;;5028727;28;20041;-73
2022/11/16 12:29:19;;;;;;;37.47;22.52;;;16.70;99.90;;;;;;5026984;28;20064;-72
2022/11/16 12:32:06;;;;;;;37.88;25.10;;;16.80;99.90;;;;;;5033389;28;20025;-73
2022/11/16 12:34:51;;;;;;;30.08;19.30;;;16.70;99.90;;;;;;5032301;28;20538;-73
2022/11/16 12:37:28;;;;;;;30.13;20.65;;;16.80;99.90;;;;;;5038826;28;20029;-73
2022/11/16 12:40:19;;;;;;;36.53;23.58;;;16.80;99.90;;;;;;5048699;28;20048;-73
2022/11/16 12:42:52;;;;;;;35.30;23.08;;;16.70;99.90;;;;;;5032327;28;20045;-78
2022/11/16 12:45:22;;;;;;;36.53;20.27;;;16.70;99.90;;;;;;5032113;28;20029;-73
2022/11/16 12:48:08;;;;;;;33.40;20.95;;;16.60;99.90;;;;;;5032653;28;20026;-73
2022/11/16 12:50:49;;;;;;;30.35;18.73;;;16.60;99.90;;;;;;5032081;28;20018;-73
2022/11/16 12:53:39;;;;;;;34.25;18.65;;;16.60;99.90;;;;;;5032058;28;20044;-73
2022/11/16 12:56:30;;;;;;;32.58;18.45;;;16.50;99.90;;;;;;5034809;28;20032;-73
2022/11/16 12:59:02;;;;;;;27.48;17.92;;;16.50;99.90;;;;;;5036613;28;20418;-77
2022/11/16 13:01:51;;;;;;;26.10;17.30;;;16.40;99.90;;;;;;5045629;28;20527;-72
2022/11/16 13:04:33;;;;;;;32.83;19.77;;;16.30;99.90;;;;;;5045564;28;20021;-71
2022/11/16 13:07:48;;;;;;;51.78;31.48;;;16.30;99.90;;;;;;5024184;28;20859;-71
2022/11/16 13:10:41;;;;;;;40.13;25.10;;;16.30;99.90;;;;;;4985087;28;20495;-71
2022/11/16 13:13:30;;;;;;;33.38;21.92;;;16.20;99.90;;;;;;5031968;28;20030;-72
2022/11/16 13:15:58;;;;;;;24.75;15.05;;;16.20;99.90;;;;;;5034632;28;20032;-73
2022/11/16 13:18:26;;;;;;;24.17;14.57;;;16.10;99.90;;;;;;5030198;28;20017;-72
2022/11/16 13:21:05;;;;;;;21.73;12.43;;;16.10;99.90;;;;;;5032913;28;20037;-72
2022/11/16 13:23:34;;;;;;;22.00;13.68;;;16.00;99.90;;;;;;5049918;28;20075;-72
2022/11/16 13:26:12;;;;;;;24.02;12.13;;;15.90;99.90;;;;;;5041758;28;20051;-71
2022/11/16 13:29:19;;;;;;;23.23;12.98;;;15.80;99.90;;;;;;5031558;28;20369;-74
2022/11/16 13:32:15;;;;;;;21.00;10.93;;;15.80;99.90;;;;;;5035444;28;20563;-72
2022/11/16 13:34:41;;;;;;;19.00;11.52;;;15.70;99.90;;;;;;5042893;28;20111;-73
2022/11/16 13:37:38;;;;;;;17.20;10.20;;;15.70;99.90;;;;;;5033265;28;20737;-74
2022/11/16 13:40:03;;;;;;;23.30;13.23;;;15.60;99.90;;;;;;5030662;28;20041;-72
2022/11/16 13:42:31;;;;;;;26.40;16.20;;;15.70;99.90;;;;;;5039584;28;20360;-71
2022/11/16 13:45:14;;;;;;;40.53;20.65;;;15.60;99.90;;;;;;5046678;28;20025;-71